Forside
METAR-TAF:

METAR-TAF

Lufthavne :

Rochester International Airport

Rochester, Minnesota, USA

Breddekreds: 43-54-15N, længdekreds: 092-29-30W, højde: 401 m

Aktuelle vejr

Denne rapport blev lavet for 38 minutter siden, kl. 15:54 UTC
Vind 6 kt fra øst
Temperatur 21°C
Fugtighed 46%
Tryk 1021 hPa
Sigt: 16.1 km
Spredte skyer i en højde af 8500 ft

METAR: KRST 061554Z 09006KT 10SM SCT085 21/09 A3015 RMK AO2 SLP205 T02110094

Tid: 11:32 (16:32 UTC)

Vejrudsigter

Denne rapport blev lavet for 5 timer og 12 minutter siden, kl. 11:20 UTC
Foreløbig gælder fra 06 på 12 UTC til 07 på 12 UTC
Vind 6 kt fra nordøst
Sigt: 10 km
Brudte skyer i en højde af 10000 ft
Fra 06 på 1600 UTC
Vind 10 kt fra øst
Sigt: 10 km
Spredte skyer i en højde af 25000 ft
Fra 07 på 0600 UTC
Vind 15 kt fra sydsydøst
Sigt: 10 km
Brudte skyer i en højde af 10000 ft

TAF: KRST 061120Z 0612/0712 05006KT P6SM BKN100 FM061600 10010KT P6SM SCT250 FM070600 15015KT P6SM BKN100

Vejrobservationer og prognoser fra mere end 4000 lufthavne (METAR og TAF).

De gule og røde prikker repræsenterer de meteorologiske stationer.

Flyt musen over at se navnet på stationen.

Så klik over at se vejr observationer og prognoser.

At skifte det kort: Klik på de grønne knapper med et sort kors for at zoome ind; på den grønne knap med en bindestreg for at zoome ud; eller på de grønne pile for tilstødende kort.


METAR-TAF: